NCAR-RAP Real-Time Weather Data

Output produced by METARs form (21 May 2019  10:26 UTC)
found at http://weather.rap.ucar.edu/surface/
 
RJEC 211013Z 19014KT 160V220 6000 SHRA FEW005 SCT015 BKN030 15/14 Q1001 RMK 1ST005 3ST015 6CU030 A2956
RJEC 211007Z 19015KT 5000 -SHRA BR FEW005 SCT015 BKN030 15/14 Q1000 RMK 1ST005 3ST015 6CU030 A2955
RJEC 211000Z 19014KT 5000 SHRA BR FEW005 SCT015 BKN030 15/14 Q1000
RJEC 210948Z 19013G23KT 4900 -SHRA BR FEW005 SCT015 BKN030 15/14 Q1000 RMK 1ST005 3ST015 6CU030 A2954
RJEC 210900Z 19012KT 9999 -SHRA FEW007 SCT030 BKN080 16/14 Q0999
RJEC 210800Z 19016G26KT 9999 -SHRA FEW010 SCT030 BKN050 17/14 Q0998
RJEC 210710Z 18017G27KT 9999 -SHRA FEW015 SCT030 BKN080 18/15 Q0998 RMK 1ST015 3CU030 5AC080 A2949
RJEC 210700Z 18016KT 9999 -SHRA FEW015 SCT030 BKN080 18/15 Q0998
RJEC 210626Z 18015G25KT 9999 -SHRA FEW015 SCT050 BKN080 17/15 Q0999 RMK 1ST015 3CU050 5AC080 A2950
RJEC 210600Z 18016KT 9999 -SHRA FEW015 SCT060 BKN080 17/15 Q0999
RJEC 210521Z 17019G29KT 9999 -SHRA FEW010 SCT030 BKN060 17/15 Q0998 RMK 1ST010 3CU030 5CU060 A2950
RJEC 210500Z 18016KT 9999 -SHRA FEW010 SCT030 BKN060 17/15 Q0999
RJEC 210413Z 19015G25KT 9999 -SHRA FEW010 SCT030 BKN060 18/15 Q0999 RMK 1ST010 3CU030 6CU060 A2952
RJEC 210400Z 19016KT 9999 -SHRA FEW010 SCT040 BKN060 17/15 Q0999
RJEC 210300Z 19016G26KT 9999 -SHRA FEW010 SCT020 BKN045 18/14 Q1000
RJEC 210205Z 18016G27KT 9999 -SHRA FEW010 SCT030 BKN040 17/13 Q1000 RMK 1ST010 3CU030 5CU040 A2955
RJEC 210200Z 18016KT 9999 -SHRA FEW010 SCT030 BKN040 17/13 Q1000
RJEC 210100Z 19013KT 9999 -SHRA FEW010 SCT035 BKN100 17/13 Q1001
RJEC 210000Z 20012KT 170V240 9999 VCSH FEW015 SCT020 BKN030 16/12 Q1002
RJEC 202300Z 20003KT 140V240 9999 -SHRA FEW015 SCT020 BKN030 15/12 Q1003
RJEC 202200Z 15010KT 9999 -SHRA FEW010 SCT015 BKN030 14/12 Q1003
RJEC 202140Z 19010KT 9999 -SHRA FEW010 SCT015 BKN030 15/12 Q1003 RMK 1ST010 3ST015 7CU030 A2964
RJEC 201100Z 18016KT 9999 FEW030 BKN/// 17/09 Q1009
RJEC 201000Z 18016G29KT 9999 FEW030 BKN/// 18/09 Q1009
RJEC 200900Z 20019G30KT 9999 FEW030 BKN/// 20/09 Q1009
RJEC 200800Z 20016KT 9999 FEW030 BKN/// 20/09 Q1008
RJEC 200700Z 19020G32KT 9999 FEW030 BKN/// 22/09 Q1008
RJEC 200600Z 20016G27KT 9999 FEW030 BKN/// 24/09 Q1008
RJEC 200500Z 18019G30KT 9999 FEW030 BKN/// 24/09 Q1009
RJEC 200400Z 19017KT 9999 FEW030 BKN/// 23/09 Q1010
RJEC 200300Z 19017G27KT 9999 FEW030 BKN/// 23/08 Q1011
RJEC 200200Z 18013G23KT 160V220 9999 FEW030 BKN/// 23/09 Q1012
RJEC 200100Z 20012KT 9999 FEW030 BKN/// 22/11 Q1012
RJEC 200000Z 20013G23KT 160V230 9999 FEW020 BKN/// 20/09 Q1013
RJEC 192300Z 19016KT 9999 FEW020 BKN/// 19/09 Q1013
RJEC 192200Z 19015KT 9999 FEW030 SCT/// 17/10 Q1014
RJEC 192140Z 20009KT 150V230 9999 FEW040 SCT/// 17/09 Q1014 RMK 1SC040 A2995
RJEC 191100Z 21006KT 9999 FEW050 BKN/// 19/09 Q1017
RJEC 191000Z 18009KT 9999 FEW050 BKN/// 21/09 Q1017
RJEC 190900Z 19007KT 9999 FEW060 BKN/// 23/06 Q1016
RJEC 190800Z 19008KT 9999 FEW060 BKN/// 25/09 Q1016
RJEC 190700Z VRB04KT 9999 FEW050 SCT070 BKN/// 24/11 Q1017
RJEC 190600Z 01006KT 9999 FEW050 SCT070 24/11 Q1017
RJEC 190500Z 34007KT 9999 FEW050 SCT060 BKN/// 25/12 Q1017
RJEC 190400Z 34007KT 290V020 9999 FEW050 SCT060 BKN/// 24/13 Q1018
RJEC 190300Z VRB04KT 9999 FEW050 SCT070 BKN/// 24/11 Q1018
RJEC 190200Z 24008G21KT 210V310 9999 FEW050 SCT070 BKN/// 24/12 Q1019
RJEC 190100Z 33006KT 300V010 9999 FEW050 SCT070 BKN/// 23/12 Q1019
RJEC 190000Z 19008KT 150V220 9999 FEW050 BKN/// 22/10 Q1019
RJEC 182300Z 16011KT 9999 FEW060 BKN/// 21/10 Q1020